createdAt,value
2019-03-12T00:00:12.158Z,4.70
2019-03-12T00:02:40.760Z,4.70
2019-03-12T00:05:09.595Z,4.80
2019-03-12T00:07:38.211Z,4.80
2019-03-12T00:10:08.548Z,4.90
2019-03-12T00:12:37.144Z,4.90
2019-03-12T00:15:06.991Z,4.90
2019-03-12T00:17:35.362Z,4.90
2019-03-12T00:20:05.162Z,5.00
2019-03-12T00:22:33.751Z,5.00
2019-03-12T00:25:02.182Z,5.00
2019-03-12T00:27:30.575Z,5.00
2019-03-12T00:29:58.954Z,4.90
2019-03-12T00:32:27.322Z,4.80
2019-03-12T00:34:55.926Z,4.80
2019-03-12T00:37:24.299Z,4.80
2019-03-12T00:39:52.687Z,4.80
2019-03-12T00:42:21.046Z,4.90
2019-03-12T00:44:49.426Z,5.00
2019-03-12T00:47:17.794Z,5.10
2019-03-12T00:49:46.198Z,5.00
2019-03-12T00:52:14.612Z,4.90
2019-03-12T00:54:43.019Z,4.80
2019-03-12T00:57:11.399Z,4.80
2019-03-12T00:59:39.776Z,4.80
2019-03-12T01:02:08.210Z,4.80
2019-03-12T01:04:36.575Z,4.90
2019-03-12T01:07:05.186Z,4.90
2019-03-12T01:09:33.555Z,4.90
2019-03-12T01:12:02.158Z,4.90
2019-03-12T01:14:30.535Z,4.90
2019-03-12T01:16:58.917Z,4.90
2019-03-12T01:19:27.521Z,4.90
2019-03-12T01:21:55.931Z,4.90
2019-03-12T01:24:24.519Z,4.90
2019-03-12T01:26:53.132Z,5.00
2019-03-12T01:29:21.503Z,5.00
2019-03-12T01:31:50.130Z,5.00
2019-03-12T01:34:18.727Z,5.00
2019-03-12T01:36:47.102Z,4.90
2019-03-12T01:39:15.646Z,4.90
2019-03-12T01:41:44.026Z,4.80
2019-03-12T01:44:12.630Z,4.90
2019-03-12T01:46:41.240Z,4.90
2019-03-12T01:49:09.603Z,4.90
2019-03-12T01:51:38.214Z,5.00
2019-03-12T01:54:06.581Z,5.00
2019-03-12T01:56:34.955Z,5.10
2019-03-12T01:59:03.318Z,5.10
2019-03-12T02:01:31.927Z,5.10
2019-03-12T02:04:00.523Z,5.10
2019-03-12T02:06:29.143Z,5.00
2019-03-12T02:08:57.513Z,4.90
2019-03-12T02:11:25.887Z,4.80
2019-03-12T02:13:54.497Z,4.70
2019-03-12T02:16:23.098Z,4.60
2019-03-12T02:18:51.479Z,4.50
2019-03-12T02:21:19.855Z,4.40
2019-03-12T02:23:48.459Z,4.40
2019-03-12T02:26:18.366Z,4.40
2019-03-12T02:28:46.743Z,4.30
2019-03-12T02:31:15.106Z,4.30
2019-03-12T02:33:43.708Z,4.30
2019-03-12T02:36:12.307Z,4.30
2019-03-12T02:38:40.688Z,4.40
2019-03-12T02:41:09.275Z,4.30
2019-03-12T02:43:37.655Z,4.30
2019-03-12T02:46:06.027Z,4.30
2019-03-12T02:48:34.627Z,4.20
2019-03-12T02:51:03.010Z,4.10
2019-03-12T02:53:31.392Z,4.00
2019-03-12T02:56:01.872Z,4.00
2019-03-12T02:58:30.089Z,4.00
2019-03-12T03:00:58.679Z,4.00
2019-03-12T03:03:27.060Z,3.90
2019-03-12T03:06:12.156Z,3.90
2019-03-12T03:08:40.552Z,3.80
2019-03-12T03:11:08.901Z,3.80
2019-03-12T03:13:37.283Z,3.70
2019-03-12T03:16:05.888Z,3.60
2019-03-12T03:18:34.474Z,3.50
2019-03-12T03:21:03.088Z,3.50
2019-03-12T03:23:31.454Z,3.40
2019-03-12T03:25:59.832Z,3.40
2019-03-12T03:28:28.198Z,3.30
2019-03-12T03:30:56.584Z,3.20
2019-03-12T03:33:24.943Z,3.20
2019-03-12T03:35:53.319Z,3.10
2019-03-12T03:38:21.690Z,3.10
2019-03-12T03:40:50.299Z,3.10
2019-03-12T03:43:18.666Z,3.00
2019-03-12T03:45:47.039Z,2.90
2019-03-12T03:48:15.632Z,2.90
2019-03-12T03:50:44.240Z,2.80
2019-03-12T03:53:12.847Z,2.70
2019-03-12T03:55:41.487Z,2.70
2019-03-12T03:58:09.837Z,2.60
2019-03-12T04:00:38.438Z,2.60
2019-03-12T04:03:07.029Z,2.60
2019-03-12T04:05:35.655Z,2.70
2019-03-12T04:08:04.018Z,2.80
2019-03-12T04:10:32.401Z,2.80
2019-03-12T04:13:01.073Z,2.90
2019-03-12T04:15:29.674Z,2.80
2019-03-12T04:17:58.615Z,2.70
2019-03-12T04:20:27.234Z,2.70
2019-03-12T04:22:55.591Z,2.60
2019-03-12T04:25:24.191Z,2.60
2019-03-12T04:27:52.798Z,2.60
2019-03-12T04:30:21.407Z,2.50
2019-03-12T04:32:49.791Z,2.40
2019-03-12T04:35:23.795Z,2.40
2019-03-12T04:37:52.380Z,2.40
2019-03-12T04:40:20.971Z,2.50
2019-03-12T04:42:49.350Z,2.50
2019-03-12T04:45:17.807Z,2.50
2019-03-12T04:47:46.399Z,2.50
2019-03-12T04:50:15.541Z,2.40
2019-03-12T04:52:43.988Z,2.40
2019-03-12T04:55:14.707Z,2.40
2019-03-12T04:57:43.089Z,2.40
2019-03-12T05:00:14.757Z,2.40
2019-03-12T05:02:43.140Z,2.40
2019-03-12T05:05:11.907Z,2.50
2019-03-12T05:07:40.520Z,2.50
2019-03-12T05:10:14.773Z,2.50
2019-03-12T05:12:43.451Z,2.50
2019-03-12T05:15:14.054Z,2.40
2019-03-12T05:17:42.682Z,2.30
2019-03-12T05:20:12.695Z,2.30
2019-03-12T05:22:41.517Z,2.20
2019-03-12T05:25:12.214Z,2.20
2019-03-12T05:27:40.626Z,2.20
2019-03-12T05:30:12.047Z,2.20
2019-03-12T05:32:40.485Z,2.10
2019-03-12T05:35:09.095Z,2.10
2019-03-12T05:37:37.459Z,2.20
2019-03-12T05:40:09.042Z,2.30
2019-03-12T05:42:37.648Z,2.30
2019-03-12T05:45:08.862Z,2.30
2019-03-12T05:47:37.454Z,2.30
2019-03-12T05:50:10.952Z,2.20
2019-03-12T05:52:39.323Z,2.20
2019-03-12T05:55:09.142Z,2.20
2019-03-12T05:57:37.739Z,2.30
2019-03-12T06:00:21.670Z,2.30
2019-03-12T06:02:50.198Z,2.20
2019-03-12T06:05:18.633Z,2.20
2019-03-12T06:07:46.985Z,2.20
2019-03-12T06:10:16.403Z,2.20
2019-03-12T06:12:44.776Z,2.30
2019-03-12T06:15:16.804Z,2.30
2019-03-12T06:17:45.161Z,2.50
2019-03-12T06:20:14.471Z,2.60
2019-03-12T06:22:43.143Z,2.60
2019-03-12T06:25:11.791Z,2.50
2019-03-12T06:27:40.430Z,2.50
2019-03-12T06:30:20.071Z,2.50
2019-03-12T06:32:50.308Z,2.50
2019-03-12T06:35:23.035Z,2.50
2019-03-12T06:37:58.679Z,2.50
2019-03-12T06:40:40.431Z,2.50
2019-03-12T06:43:22.490Z,2.60
2019-03-12T06:46:04.571Z,2.70
2019-03-12T06:48:34.580Z,2.70
2019-03-12T06:51:20.867Z,2.70
2019-03-12T06:54:08.907Z,2.80
2019-03-12T06:56:38.926Z,2.80
2019-03-12T06:59:17.683Z,2.80
2019-03-12T07:01:47.931Z,2.90
2019-03-12T07:04:26.971Z,3.00
2019-03-12T07:07:01.173Z,3.00
2019-03-12T07:09:31.497Z,3.10
2019-03-12T07:12:01.508Z,3.10
2019-03-12T07:14:40.263Z,3.20
2019-03-12T07:17:15.858Z,3.50
2019-03-12T07:19:57.861Z,4.20
2019-03-12T07:22:39.900Z,4.80
2019-03-12T07:25:22.598Z,5.10
2019-03-12T07:27:58.529Z,5.70
2019-03-12T07:30:31.466Z,6.30
2019-03-12T07:33:01.722Z,6.60
2019-03-12T07:35:37.795Z,7.00
2019-03-12T07:38:24.274Z,7.60
2019-03-12T07:40:54.511Z,8.10
2019-03-12T07:43:40.838Z,8.60
2019-03-12T07:46:16.858Z,9.10
2019-03-12T07:49:03.059Z,10.10
2019-03-12T07:51:35.947Z,10.90
2019-03-12T07:54:06.199Z,11.80
2019-03-12T07:56:44.998Z,11.90
2019-03-12T07:59:24.115Z,12.50
2019-03-12T08:02:00.139Z,12.60
2019-03-12T08:04:38.891Z,12.70
2019-03-12T08:07:18.096Z,12.80
2019-03-12T08:09:48.353Z,12.90
2019-03-12T08:12:24.433Z,12.70
2019-03-12T08:14:54.455Z,12.90
2019-03-12T08:17:33.486Z,13.40
2019-03-12T08:20:06.190Z,13.80
2019-03-12T08:22:38.848Z,14.50
2019-03-12T08:25:28.183Z,13.50
2019-03-12T08:28:10.358Z,12.50
2019-03-12T08:30:49.680Z,11.70
2019-03-12T08:33:19.936Z,12.20
2019-03-12T08:35:53.134Z,13.20
2019-03-12T08:38:35.151Z,13.50
2019-03-12T08:41:10.876Z,14.00
2019-03-12T08:43:46.528Z,14.40
2019-03-12T08:46:18.388Z,14.80
2019-03-12T08:49:05.863Z,15.10
2019-03-12T08:51:50.763Z,15.20
2019-03-12T08:54:29.671Z,14.70
2019-03-12T08:57:05.459Z,14.60
2019-03-12T08:59:38.427Z,15.20
2019-03-12T09:02:24.802Z,14.70
2019-03-12T09:04:55.056Z,14.10
2019-03-12T09:07:41.266Z,14.60
2019-03-12T09:10:14.349Z,15.40
2019-03-12T09:13:00.758Z,16.30
2019-03-12T09:15:36.799Z,16.20
2019-03-12T09:18:18.872Z,15.60
2019-03-12T09:20:48.890Z,15.50
2019-03-12T09:23:24.704Z,15.20
2019-03-12T09:26:03.498Z,15.60
2019-03-12T09:28:42.329Z,16.10
2019-03-12T09:31:18.413Z,16.50
2019-03-12T09:33:48.419Z,16.70
2019-03-12T09:36:30.494Z,16.80
2019-03-12T09:39:03.729Z,17.80
2019-03-12T09:41:36.478Z,16.70
2019-03-12T09:44:12.679Z,15.90
2019-03-12T09:46:45.567Z,16.00
2019-03-12T09:49:27.989Z,15.80
2019-03-12T09:51:58.015Z,16.30
2019-03-12T09:54:33.432Z,16.10
2019-03-12T09:57:12.159Z,15.60
2019-03-12T09:59:42.175Z,15.70
2019-03-12T10:02:12.423Z,15.60
2019-03-12T10:04:42.663Z,15.80
2019-03-12T10:07:15.602Z,16.30
2019-03-12T10:09:54.334Z,16.90
2019-03-12T10:12:33.507Z,16.50
2019-03-12T10:15:19.310Z,16.40
2019-03-12T10:18:04.367Z,16.00
2019-03-12T10:20:46.397Z,15.10
2019-03-12T10:23:19.724Z,15.10
2019-03-12T10:25:49.975Z,15.50
2019-03-12T10:28:25.914Z,14.20
2019-03-12T10:30:55.931Z,13.50
2019-03-12T10:33:25.956Z,12.90
2019-03-12T10:35:59.187Z,12.80
2019-03-12T10:39:11.558Z,12.20
2019-03-12T10:41:44.226Z,11.80
2019-03-12T10:44:14.471Z,11.60
2019-03-12T10:46:44.791Z,11.50
2019-03-12T10:49:13.411Z,11.60
2019-03-12T10:51:41.806Z,12.40
2019-03-12T10:54:10.167Z,12.80
2019-03-12T10:56:38.540Z,12.90
2019-03-12T10:59:07.147Z,13.20
2019-03-12T11:01:35.530Z,14.70
2019-03-12T11:04:04.147Z,15.50
2019-03-12T11:06:32.523Z,14.60
2019-03-12T11:09:00.913Z,13.90
2019-03-12T11:11:29.452Z,13.30
2019-03-12T11:13:57.843Z,13.00
2019-03-12T11:16:26.216Z,13.00
2019-03-12T11:18:54.598Z,12.30
2019-03-12T11:21:23.204Z,11.90
2019-03-12T11:23:51.835Z,11.70
2019-03-12T11:26:20.450Z,11.50
2019-03-12T11:28:48.854Z,11.40
2019-03-12T11:31:17.440Z,11.30
2019-03-12T11:33:46.051Z,11.00
2019-03-12T11:36:14.853Z,10.70
2019-03-12T11:38:43.599Z,10.80
2019-03-12T11:41:11.989Z,10.80
2019-03-12T11:43:40.619Z,11.00
2019-03-12T11:46:09.060Z,11.30
2019-03-12T11:48:37.651Z,11.60
2019-03-12T11:51:06.245Z,11.40
2019-03-12T11:53:34.786Z,11.30
2019-03-12T11:56:03.194Z,11.30
2019-03-12T11:58:31.561Z,11.40
2019-03-12T12:01:04.684Z,11.30
2019-03-12T12:03:33.138Z,11.10
2019-03-12T12:06:01.582Z,11.00
2019-03-12T12:08:30.299Z,11.20
2019-03-12T12:10:58.911Z,11.10
2019-03-12T12:13:27.311Z,11.10
2019-03-12T12:15:55.920Z,11.10
2019-03-12T12:18:25.561Z,11.10
2019-03-12T12:20:53.939Z,10.80
2019-03-12T12:23:22.314Z,10.70
2019-03-12T12:25:50.771Z,10.70
2019-03-12T12:28:19.367Z,10.70
2019-03-12T12:30:47.975Z,10.60
2019-03-12T12:33:16.363Z,10.60
2019-03-12T12:35:44.747Z,10.50
2019-03-12T12:38:13.900Z,10.40
2019-03-12T12:40:42.366Z,10.40
2019-03-12T12:43:13.116Z,10.20
2019-03-12T12:45:41.733Z,10.10
2019-03-12T12:48:10.103Z,10.10
2019-03-12T12:50:38.712Z,10.00
2019-03-12T12:53:07.311Z,10.10
2019-03-12T12:55:35.695Z,10.10
2019-03-12T12:58:04.295Z,10.20
2019-03-12T13:00:32.914Z,10.40
2019-03-12T13:03:01.290Z,10.50
2019-03-12T13:05:29.890Z,10.50
2019-03-12T13:07:58.653Z,11.20
2019-03-12T13:10:28.091Z,12.40
2019-03-12T13:12:56.716Z,12.90
2019-03-12T13:15:26.635Z,13.40
2019-03-12T13:17:55.094Z,13.70
2019-03-12T13:20:23.465Z,14.00
2019-03-12T13:22:52.129Z,14.60
2019-03-12T13:25:20.867Z,13.70
2019-03-12T13:27:49.254Z,13.60
2019-03-12T13:30:21.511Z,13.80
2019-03-12T13:32:49.956Z,13.60
2019-03-12T13:35:18.974Z,13.60
2019-03-12T13:37:48.415Z,14.00
2019-03-12T13:40:23.624Z,13.40
2019-03-12T13:42:52.482Z,13.30
2019-03-12T13:45:24.625Z,13.10
2019-03-12T13:47:53.410Z,12.80
2019-03-12T13:50:21.867Z,12.50
2019-03-12T13:52:50.432Z,12.30
2019-03-12T13:55:19.439Z,12.20
2019-03-12T13:57:47.810Z,11.90
2019-03-12T14:00:21.055Z,12.00
2019-03-12T14:02:49.907Z,12.10
2019-03-12T14:05:18.954Z,12.50
2019-03-12T14:07:47.399Z,12.80
2019-03-12T14:10:25.533Z,13.00
2019-03-12T14:12:54.998Z,12.80
2019-03-12T14:15:31.435Z,12.20
2019-03-12T14:18:00.403Z,11.80
2019-03-12T14:20:32.084Z,11.60
2019-03-12T14:23:00.696Z,11.30
2019-03-12T14:25:29.116Z,11.30
2019-03-12T14:27:57.730Z,11.40
2019-03-12T14:30:26.107Z,11.50
2019-03-12T14:32:54.488Z,11.50
2019-03-12T14:35:25.899Z,11.40
2019-03-12T14:37:54.510Z,11.30
2019-03-12T14:40:23.227Z,11.20
2019-03-12T14:42:51.603Z,11.20
2019-03-12T14:45:27.371Z,11.10
2019-03-12T14:47:56.287Z,11.20
2019-03-12T14:50:26.627Z,11.40
2019-03-12T14:53:07.761Z,11.40
2019-03-12T14:55:37.545Z,11.30
2019-03-12T14:58:05.956Z,11.30
2019-03-12T15:00:34.403Z,11.20
2019-03-12T15:03:02.985Z,11.30
2019-03-12T15:05:33.302Z,11.10
2019-03-12T15:08:02.038Z,11.10
2019-03-12T15:10:30.480Z,10.90
2019-03-12T15:12:58.857Z,10.80
2019-03-12T15:15:27.240Z,10.80
2019-03-12T15:17:55.607Z,10.70
2019-03-12T15:20:24.215Z,10.60
2019-03-12T15:22:52.583Z,10.50
2019-03-12T15:25:20.963Z,10.60
2019-03-12T15:27:49.576Z,10.60
2019-03-12T15:30:20.872Z,10.50
2019-03-12T15:32:49.248Z,10.40
2019-03-12T15:35:17.854Z,10.40
2019-03-12T15:37:46.487Z,10.30
2019-03-12T15:40:14.958Z,10.30
2019-03-12T15:42:43.564Z,10.20
2019-03-12T15:45:15.642Z,10.20
2019-03-12T15:47:44.253Z,10.10
2019-03-12T15:50:14.671Z,10.10
2019-03-12T15:52:43.267Z,10.00
2019-03-12T15:55:12.756Z,10.00
2019-03-12T15:57:41.357Z,9.90
2019-03-12T16:00:14.534Z,9.90
2019-03-12T16:02:44.404Z,9.90
2019-03-12T16:05:13.024Z,9.90
2019-03-12T16:07:41.619Z,9.90
2019-03-12T16:10:12.863Z,9.90
2019-03-12T16:12:41.240Z,9.90
2019-03-12T16:15:11.379Z,9.80
2019-03-12T16:17:39.989Z,9.90
2019-03-12T16:20:15.807Z,9.80
2019-03-12T16:22:44.166Z,9.80
2019-03-12T16:25:12.939Z,9.90
2019-03-12T16:27:41.554Z,9.90
2019-03-12T16:30:12.424Z,9.90
2019-03-12T16:32:41.027Z,9.90
2019-03-12T16:35:09.767Z,9.90
2019-03-12T16:37:38.368Z,9.80
2019-03-12T16:40:17.579Z,9.80
2019-03-12T16:42:46.044Z,9.80
2019-03-12T16:45:18.635Z,9.80
2019-03-12T16:47:47.380Z,9.70
2019-03-12T16:50:18.753Z,9.80
2019-03-12T16:52:47.135Z,9.80
2019-03-12T16:55:17.281Z,9.80
2019-03-12T16:57:45.950Z,9.80
2019-03-12T17:00:19.575Z,9.80
2019-03-12T17:02:48.273Z,9.80
2019-03-12T17:05:16.709Z,9.80
2019-03-12T17:07:45.077Z,9.80
2019-03-12T17:10:17.852Z,9.80
2019-03-12T17:12:46.255Z,9.80
2019-03-12T17:15:16.487Z,9.80
2019-03-12T17:17:44.880Z,9.80
2019-03-12T17:20:14.914Z,9.70
2019-03-12T17:22:43.523Z,9.70
2019-03-12T17:25:12.380Z,9.80
2019-03-12T17:27:40.998Z,9.80
2019-03-12T17:30:20.175Z,9.90
2019-03-12T17:32:48.786Z,9.80
2019-03-12T17:35:23.299Z,9.80
2019-03-12T17:37:51.677Z,9.80
2019-03-12T17:40:21.288Z,9.80
2019-03-12T17:42:49.671Z,9.80
2019-03-12T17:45:18.153Z,9.80
2019-03-12T17:47:46.526Z,9.90
2019-03-12T17:50:15.465Z,9.90
2019-03-12T17:52:43.877Z,9.90
2019-03-12T17:55:14.700Z,9.90
2019-03-12T17:57:43.223Z,9.90
2019-03-12T18:00:29.171Z,9.90
2019-03-12T18:02:57.553Z,10.00
2019-03-12T18:05:25.922Z,9.90
2019-03-12T18:07:54.538Z,10.00
2019-03-12T18:10:23.148Z,10.00
2019-03-12T18:12:51.516Z,9.90
2019-03-12T18:15:20.745Z,10.00
2019-03-12T18:17:49.250Z,10.00
2019-03-12T18:20:21.503Z,10.10
2019-03-12T18:22:49.868Z,10.00
2019-03-12T18:25:33.049Z,10.00
2019-03-12T18:28:01.391Z,9.90
2019-03-12T18:30:29.842Z,9.90
2019-03-12T18:32:58.215Z,10.00
2019-03-12T18:35:26.598Z,10.00
2019-03-12T18:37:55.288Z,10.00
2019-03-12T18:40:25.007Z,10.00
2019-03-12T18:42:54.266Z,10.00
2019-03-12T18:45:33.890Z,10.10
2019-03-12T18:48:02.499Z,10.10
2019-03-12T18:50:30.886Z,10.10
2019-03-12T18:52:59.484Z,10.10
2019-03-12T18:55:33.634Z,10.10
2019-03-12T18:58:02.778Z,10.10
2019-03-12T19:00:32.156Z,10.10
2019-03-12T19:03:00.499Z,10.10
2019-03-12T19:05:28.908Z,10.10
2019-03-12T19:07:57.483Z,10.10
2019-03-12T19:10:25.868Z,10.10
2019-03-12T19:12:54.252Z,10.10
2019-03-12T19:15:22.619Z,10.20
2019-03-12T19:17:51.239Z,10.20
2019-03-12T19:20:20.146Z,10.20
2019-03-12T19:22:48.606Z,10.20
2019-03-12T19:25:31.700Z,10.20
2019-03-12T19:28:00.617Z,10.20
2019-03-12T19:30:29.129Z,10.20
2019-03-12T19:32:59.368Z,10.20
2019-03-12T19:35:32.103Z,10.20
2019-03-12T19:38:01.448Z,10.20
2019-03-12T19:40:38.692Z,10.20
2019-03-12T19:43:07.213Z,10.20
2019-03-12T19:45:35.616Z,10.20
2019-03-12T19:48:04.719Z,10.20
2019-03-12T19:50:33.158Z,10.20
2019-03-12T19:53:01.539Z,10.20
2019-03-12T19:55:44.915Z,10.20
2019-03-12T19:58:13.534Z,10.20
2019-03-12T20:00:42.650Z,10.20
2019-03-12T20:03:15.088Z,10.10
2019-03-12T20:05:41.649Z,10.10
2019-03-12T20:08:10.257Z,10.10
2019-03-12T20:11:14.327Z,10.00
2019-03-12T20:14:01.846Z,10.00
2019-03-12T20:17:09.220Z,9.90
2019-03-12T20:19:49.318Z,10.00
2019-03-12T20:22:42.737Z,10.00
2019-03-12T20:25:42.503Z,10.10
2019-03-12T20:28:33.315Z,10.10
2019-03-12T20:31:10.854Z,10.10
2019-03-12T20:33:54.129Z,10.10
2019-03-12T20:36:47.632Z,10.10
2019-03-12T20:39:50.251Z,10.10
2019-03-12T20:42:49.412Z,10.20
2019-03-12T20:45:46.075Z,10.20
2019-03-12T20:48:49.419Z,10.30
2019-03-12T20:51:36.899Z,10.30
2019-03-12T20:54:27.584Z,10.30
2019-03-12T20:57:19.707Z,10.40
2019-03-12T21:00:25.263Z,10.40
2019-03-12T21:03:14.095Z,10.40
2019-03-12T21:06:04.970Z,10.40
2019-03-12T21:08:54.447Z,10.40
2019-03-12T21:11:43.668Z,10.40
2019-03-12T21:14:48.035Z,10.40
2019-03-12T21:17:25.399Z,10.40
2019-03-12T21:20:14.592Z,10.40
2019-03-12T21:22:46.038Z,10.40
2019-03-12T21:25:38.699Z,10.40
2019-03-12T21:28:27.763Z,10.40
2019-03-12T21:30:56.135Z,10.50
2019-03-12T21:33:24.507Z,10.40
2019-03-12T21:35:53.112Z,10.40
2019-03-12T21:38:21.713Z,10.40
2019-03-12T21:40:50.387Z,10.40
2019-03-12T21:43:19.021Z,10.40
2019-03-12T21:45:47.375Z,10.40
2019-03-12T21:48:15.821Z,10.30
2019-03-12T21:50:44.435Z,10.30
2019-03-12T21:53:12.811Z,10.30
2019-03-12T21:55:41.193Z,10.30
2019-03-12T21:58:09.807Z,10.30
2019-03-12T22:00:38.221Z,10.30
2019-03-12T22:03:06.595Z,10.20
2019-03-12T22:05:35.051Z,10.30
2019-03-12T22:08:03.659Z,10.30
2019-03-12T22:10:32.272Z,10.30
2019-03-12T22:13:00.654Z,10.30
2019-03-12T22:15:29.869Z,10.30
2019-03-12T22:17:58.483Z,10.30
2019-03-12T22:20:26.863Z,10.30
2019-03-12T22:23:08.432Z,10.40
2019-03-12T22:25:43.558Z,10.40
2019-03-12T22:28:11.933Z,10.40
2019-03-12T22:30:40.707Z,10.40
2019-03-12T22:33:09.094Z,10.50
2019-03-12T22:35:37.479Z,10.50
2019-03-12T22:38:06.094Z,10.50
2019-03-12T22:40:34.704Z,10.50
2019-03-12T22:43:03.078Z,10.50
2019-03-12T22:45:31.465Z,10.60
2019-03-12T22:47:59.834Z,10.60
2019-03-12T22:50:28.222Z,10.60
2019-03-12T22:52:56.873Z,10.60
2019-03-12T22:55:25.276Z,10.70
2019-03-12T22:57:53.647Z,10.70
2019-03-12T23:00:22.624Z,10.80
2019-03-12T23:02:50.999Z,10.90
2019-03-12T23:05:19.371Z,11.10
2019-03-12T23:07:47.758Z,11.20
2019-03-12T23:10:17.039Z,11.20
2019-03-12T23:12:45.493Z,11.30
2019-03-12T23:15:16.346Z,11.30
2019-03-12T23:17:44.891Z,11.30
2019-03-12T23:20:15.885Z,11.10
2019-03-12T23:22:44.258Z,11.00
2019-03-12T23:25:12.771Z,10.80
2019-03-12T23:27:41.159Z,10.70
2019-03-12T23:30:16.931Z,10.60
2019-03-12T23:32:45.551Z,10.40
2019-03-12T23:35:13.997Z,10.30
2019-03-12T23:37:42.610Z,10.20
2019-03-12T23:40:13.123Z,10.10
2019-03-12T23:42:41.510Z,10.00
2019-03-12T23:45:11.443Z,9.90
2019-03-12T23:47:39.827Z,9.80
2019-03-12T23:50:09.935Z,9.80
2019-03-12T23:52:38.315Z,9.70
2019-03-12T23:55:08.992Z,9.60
2019-03-12T23:57:37.662Z,9.60
